sensor_id;sensor_type;location;lat;lon;timestamp;pressure;altitude;pressure_sealevel;temperature;humidity
7333;BME280;3707;43.618;25.342;2022-11-15T00:01:29;100949.44;;;9.46;100.00
7333;BME280;3707;43.618;25.342;2022-11-15T00:03:56;100952.19;;;9.51;100.00
7333;BME280;3707;43.618;25.342;2022-11-15T00:06:23;100854.84;;;9.02;100.00
7333;BME280;3707;43.618;25.342;2022-11-15T00:08:51;100946.78;;;9.70;100.00
7333;BME280;3707;43.618;25.342;2022-11-15T00:11:17;100949.66;;;9.52;100.00
7333;BME280;3707;43.618;25.342;2022-11-15T00:13:44;100946.91;;;9.48;100.00
7333;BME280;3707;43.618;25.342;2022-11-15T00:16:11;100940.41;;;9.33;100.00
7333;BME280;3707;43.618;25.342;2022-11-15T00:18:38;100917.75;;;9.26;100.00
7333;BME280;3707;43.618;25.342;2022-11-15T00:21:07;100924.44;;;9.21;100.00
7333;BME280;3707;43.618;25.342;2022-11-15T00:23:34;100938.97;;;9.41;100.00
7333;BME280;3707;43.618;25.342;2022-11-15T00:26:02;100926.88;;;9.42;100.00
7333;BME280;3707;43.618;25.342;2022-11-15T00:28:29;100931.47;;;9.51;100.00
7333;BME280;3707;43.618;25.342;2022-11-15T00:31:00;100933.03;;;9.45;100.00
7333;BME280;3707;43.618;25.342;2022-11-15T00:33:27;100935.50;;;9.41;100.00
7333;BME280;3707;43.618;25.342;2022-11-15T00:35:59;100897.34;;;9.10;100.00
7333;BME280;3707;43.618;25.342;2022-11-15T00:38:30;100931.75;;;9.33;100.00
7333;BME280;3707;43.618;25.342;2022-11-15T00:40:57;100928.97;;;9.27;100.00
7333;BME280;3707;43.618;25.342;2022-11-15T00:43:25;100922.59;;;9.17;100.00
7333;BME280;3707;43.618;25.342;2022-11-15T00:45:52;100912.84;;;9.10;100.00
7333;BME280;3707;43.618;25.342;2022-11-15T00:48:19;100833.91;;;8.71;100.00
7333;BME280;3707;43.618;25.342;2022-11-15T00:50:46;100912.31;;;9.19;100.00
7333;BME280;3707;43.618;25.342;2022-11-15T00:53:13;100911.41;;;9.18;100.00
7333;BME280;3707;43.618;25.342;2022-11-15T00:55:40;100905.72;;;9.28;100.00
7333;BME280;3707;43.618;25.342;2022-11-15T00:58:07;100902.13;;;9.23;100.00
7333;BME280;3707;43.618;25.342;2022-11-15T01:00:35;100890.28;;;9.31;100.00
7333;BME280;3707;43.618;25.342;2022-11-15T01:03:02;100900.88;;;9.12;100.00
7333;BME280;3707;43.618;25.342;2022-11-15T01:05:29;100901.84;;;9.16;100.00
7333;BME280;3707;43.618;25.342;2022-11-15T01:07:56;100901.94;;;9.19;100.00
7333;BME280;3707;43.618;25.342;2022-11-15T01:10:23;100900.88;;;9.12;100.00
7333;BME280;3707;43.618;25.342;2022-11-15T01:12:51;100899.00;;;9.08;100.00
7333;BME280;3707;43.618;25.342;2022-11-15T01:15:18;100892.25;;;9.13;100.00
7333;BME280;3707;43.618;25.342;2022-11-15T01:17:46;100873.84;;;9.04;100.00
7333;BME280;3707;43.618;25.342;2022-11-15T01:20:13;100891.41;;;9.13;100.00
7333;BME280;3707;43.618;25.342;2022-11-15T01:22:39;100890.63;;;9.15;100.00
7333;BME280;3707;43.618;25.342;2022-11-15T01:25:06;100888.84;;;9.14;100.00
7333;BME280;3707;43.618;25.342;2022-11-15T01:27:33;100891.78;;;9.25;100.00
7333;BME280;3707;43.618;25.342;2022-11-15T01:30:00;100887.16;;;9.15;100.00
7333;BME280;3707;43.618;25.342;2022-11-15T01:32:26;100888.66;;;9.08;100.00
7333;BME280;3707;43.618;25.342;2022-11-15T01:34:54;100874.91;;;9.09;100.00
7333;BME280;3707;43.618;25.342;2022-11-15T01:37:21;100884.88;;;9.24;100.00
7333;BME280;3707;43.618;25.342;2022-11-15T01:39:48;100897.06;;;9.28;100.00
7333;BME280;3707;43.618;25.342;2022-11-15T01:42:15;100892.69;;;9.25;100.00
7333;BME280;3707;43.618;25.342;2022-11-15T01:44:43;100898.84;;;9.29;100.00
7333;BME280;3707;43.618;25.342;2022-11-15T01:47:13;100891.31;;;9.36;100.00
7333;BME280;3707;43.618;25.342;2022-11-15T01:49:50;100889.00;;;9.44;100.00
7333;BME280;3707;43.618;25.342;2022-11-15T01:52:22;100886.56;;;9.49;100.00
7333;BME280;3707;43.618;25.342;2022-11-15T01:54:53;100866.44;;;9.40;100.00
7333;BME280;3707;43.618;25.342;2022-11-15T01:57:20;100892.59;;;9.49;100.00
7333;BME280;3707;43.618;25.342;2022-11-15T01:59:47;100893.38;;;9.46;100.00
7333;BME280;3707;43.618;25.342;2022-11-15T02:02:14;100879.66;;;9.22;100.00
7333;BME280;3707;43.618;25.342;2022-11-15T02:04:43;100886.78;;;9.29;100.00
7333;BME280;3707;43.618;25.342;2022-11-15T02:07:13;100862.94;;;9.13;100.00
7333;BME280;3707;43.618;25.342;2022-11-15T02:09:43;100876.97;;;9.19;100.00
7333;BME280;3707;43.618;25.342;2022-11-15T02:12:11;100870.22;;;9.24;100.00
7333;BME280;3707;43.618;25.342;2022-11-15T02:14:42;100878.59;;;9.17;100.00
7333;BME280;3707;43.618;25.342;2022-11-15T02:17:23;100873.44;;;9.17;100.00
7333;BME280;3707;43.618;25.342;2022-11-15T02:20:24;100874.91;;;9.09;100.00
7333;BME280;3707;43.618;25.342;2022-11-15T02:23:09;100876.13;;;9.20;100.00
7333;BME280;3707;43.618;25.342;2022-11-15T02:25:49;100871.97;;;9.25;100.00
7333;BME280;3707;43.618;25.342;2022-11-15T02:28:44;100872.66;;;9.20;100.00
7333;BME280;3707;43.618;25.342;2022-11-15T02:31:22;100872.81;;;8.99;100.00
7333;BME280;3707;43.618;25.342;2022-11-15T02:33:56;100872.94;;;9.02;100.00
7333;BME280;3707;43.618;25.342;2022-11-15T02:36:34;100868.06;;;9.11;100.00
7333;BME280;3707;43.618;25.342;2022-11-15T02:39:09;100833.53;;;8.84;100.00
7333;BME280;3707;43.618;25.342;2022-11-15T02:41:45;100827.03;;;8.96;100.00
7333;BME280;3707;43.618;25.342;2022-11-15T02:44:18;100861.84;;;9.06;100.00
7333;BME280;3707;43.618;25.342;2022-11-15T02:46:49;100850.41;;;9.00;100.00
7333;BME280;3707;43.618;25.342;2022-11-15T02:49:37;100857.00;;;9.17;100.00
7333;BME280;3707;43.618;25.342;2022-11-15T02:52:04;100857.63;;;9.08;100.00
7333;BME280;3707;43.618;25.342;2022-11-15T02:54:32;100863.66;;;9.09;100.00
7333;BME280;3707;43.618;25.342;2022-11-15T02:57:01;100876.97;;;9.19;100.00
7333;BME280;3707;43.618;25.342;2022-11-15T02:59:47;100873.56;;;9.20;100.00
7333;BME280;3707;43.618;25.342;2022-11-15T03:02:30;100871.72;;;9.18;100.00
7333;BME280;3707;43.618;25.342;2022-11-15T03:05:04;100871.09;;;9.25;100.00
7333;BME280;3707;43.618;25.342;2022-11-15T03:07:40;100852.94;;;9.23;100.00
7333;BME280;3707;43.618;25.342;2022-11-15T03:10:15;100877.66;;;9.40;100.00
7333;BME280;3707;43.618;25.342;2022-11-15T03:12:48;100871.41;;;9.34;100.00
7333;BME280;3707;43.618;25.342;2022-11-15T03:15:20;100858.69;;;9.15;100.00
7333;BME280;3707;43.618;25.342;2022-11-15T03:17:55;100882.84;;;9.40;100.00
7333;BME280;3707;43.618;25.342;2022-11-15T03:20:25;100876.00;;;9.42;100.00
7333;BME280;3707;43.618;25.342;2022-11-15T03:22:54;100855.72;;;9.29;100.00
7333;BME280;3707;43.618;25.342;2022-11-15T03:25:24;100873.28;;;9.38;100.00
7333;BME280;3707;43.618;25.342;2022-11-15T03:27:54;100866.34;;;9.37;100.00
7333;BME280;3707;43.618;25.342;2022-11-15T03:30:22;100834.25;;;9.07;100.00
7333;BME280;3707;43.618;25.342;2022-11-15T03:32:54;100859.03;;;9.25;100.00
7333;BME280;3707;43.618;25.342;2022-11-15T03:35:23;100836.09;;;9.09;100.00
7333;BME280;3707;43.618;25.342;2022-11-15T03:37:53;100847.56;;;9.17;100.00
7333;BME280;3707;43.618;25.342;2022-11-15T03:40:25;100831.91;;;9.13;100.00
7333;BME280;3707;43.618;25.342;2022-11-15T03:43:00;100853.03;;;9.26;100.00
7333;BME280;3707;43.618;25.342;2022-11-15T03:45:31;100837.72;;;9.32;100.00
7333;BME280;3707;43.618;25.342;2022-11-15T03:48:05;100819.34;;;9.25;100.00
7333;BME280;3707;43.618;25.342;2022-11-15T03:50:34;100842.34;;;9.42;100.00
7333;BME280;3707;43.618;25.342;2022-11-15T03:53:01;100838.00;;;9.41;100.00
7333;BME280;3707;43.618;25.342;2022-11-15T03:55:28;100839.72;;;9.41;100.00
7333;BME280;3707;43.618;25.342;2022-11-15T03:58:00;100796.75;;;9.19;100.00
7333;BME280;3707;43.618;25.342;2022-11-15T04:00:27;100824.00;;;9.63;100.00
7333;BME280;3707;43.618;25.342;2022-11-15T04:02:54;100792.84;;;10.18;100.00
7333;BME280;3707;43.618;25.342;2022-11-15T04:05:23;100794.19;;;10.35;100.00
7333;BME280;3707;43.618;25.342;2022-11-15T04:07:49;100824.94;;;9.93;100.00
7333;BME280;3707;43.618;25.342;2022-11-15T04:10:16;100827.25;;;9.84;100.00
7333;BME280;3707;43.618;25.342;2022-11-15T04:12:44;100824.69;;;9.84;100.00
7333;BME280;3707;43.618;25.342;2022-11-15T04:15:17;100805.09;;;9.94;100.00
7333;BME280;3707;43.618;25.342;2022-11-15T04:17:45;100819.94;;;9.71;100.00
7333;BME280;3707;43.618;25.342;2022-11-15T04:20:14;100840.88;;;9.77;100.00
7333;BME280;3707;43.618;25.342;2022-11-15T04:23:02;100831.91;;;9.68;100.00
7333;BME280;3707;43.618;25.342;2022-11-15T04:25:49;100834.03;;;9.53;100.00
7333;BME280;3707;43.618;25.342;2022-11-15T04:28:17;100831.06;;;9.40;100.00
7333;BME280;3707;43.618;25.342;2022-11-15T04:30:44;100821.09;;;9.53;100.00
7333;BME280;3707;43.618;25.342;2022-11-15T04:33:10;100834.88;;;9.52;100.00
7333;BME280;3707;43.618;25.342;2022-11-15T04:35:37;100816.28;;;9.36;100.00
7333;BME280;3707;43.618;25.342;2022-11-15T04:38:07;100837.41;;;9.50;100.00
7333;BME280;3707;43.618;25.342;2022-11-15T04:40:34;100814.22;;;9.26;100.00
7333;BME280;3707;43.618;25.342;2022-11-15T04:43:00;100836.00;;;9.33;100.00
7333;BME280;3707;43.618;25.342;2022-11-15T04:45:27;100813.09;;;9.18;100.00
7333;BME280;3707;43.618;25.342;2022-11-15T04:47:54;100804.19;;;9.10;100.00
7333;BME280;3707;43.618;25.342;2022-11-15T04:50:21;100807.75;;;9.12;100.00
7333;BME280;3707;43.618;25.342;2022-11-15T04:52:51;100819.94;;;9.16;100.00
7333;BME280;3707;43.618;25.342;2022-11-15T04:55:20;100828.34;;;9.09;100.00
7333;BME280;3707;43.618;25.342;2022-11-15T04:57:47;100825.84;;;9.12;100.00
7333;BME280;3707;43.618;25.342;2022-11-15T05:00:15;100807.16;;;8.95;100.00
7333;BME280;3707;43.618;25.342;2022-11-15T05:02:43;100819.53;;;9.04;100.00
7333;BME280;3707;43.618;25.342;2022-11-15T05:05:27;100828.34;;;9.09;100.00
7333;BME280;3707;43.618;25.342;2022-11-15T05:07:54;100831.03;;;9.12;100.00
7333;BME280;3707;43.618;25.342;2022-11-15T05:10:22;100815.59;;;9.15;100.00
7333;BME280;3707;43.618;25.342;2022-11-15T05:12:49;100822.38;;;9.12;100.00
7333;BME280;3707;43.618;25.342;2022-11-15T05:15:16;100825.69;;;9.08;100.00
7333;BME280;3707;43.618;25.342;2022-11-15T05:17:42;100824.91;;;9.10;100.00
7333;BME280;3707;43.618;25.342;2022-11-15T05:20:10;100815.19;;;9.03;100.00
7333;BME280;3707;43.618;25.342;2022-11-15T05:22:38;100818.00;;;9.09;100.00
7333;BME280;3707;43.618;25.342;2022-11-15T05:25:06;100820.34;;;9.03;100.00
7333;BME280;3707;43.618;25.342;2022-11-15T05:27:34;100814.88;;;9.19;100.00
7333;BME280;3707;43.618;25.342;2022-11-15T05:30:01;100824.25;;;9.16;100.00
7333;BME280;3707;43.618;25.342;2022-11-15T05:32:28;100819.22;;;9.20;100.00
7333;BME280;3707;43.618;25.342;2022-11-15T05:34:55;100817.81;;;9.31;100.00
7333;BME280;3707;43.618;25.342;2022-11-15T05:37:22;100823.94;;;9.33;100.00
7333;BME280;3707;43.618;25.342;2022-11-15T05:39:49;100821.38;;;9.35;100.00
7333;BME280;3707;43.618;25.342;2022-11-15T05:42:16;100794.75;;;9.11;100.00
7333;BME280;3707;43.618;25.342;2022-11-15T05:44:47;100826.22;;;9.24;100.00
7333;BME280;3707;43.618;25.342;2022-11-15T05:47:17;100795.94;;;9.20;100.00
7333;BME280;3707;43.618;25.342;2022-11-15T05:49:45;100835.75;;;9.25;100.00
7333;BME280;3707;43.618;25.342;2022-11-15T05:52:16;100832.84;;;9.41;100.00
7333;BME280;3707;43.618;25.342;2022-11-15T05:54:45;100833.69;;;9.42;100.00
7333;BME280;3707;43.618;25.342;2022-11-15T05:57:12;100837.50;;;9.53;100.00
7333;BME280;3707;43.618;25.342;2022-11-15T05:59:40;100810.47;;;9.43;100.00
7333;BME280;3707;43.618;25.342;2022-11-15T06:02:10;100845.97;;;9.76;100.00
7333;BME280;3707;43.618;25.342;2022-11-15T06:04:37;100844.44;;;9.82;100.00
7333;BME280;3707;43.618;25.342;2022-11-15T06:07:04;100847.22;;;9.88;100.00
7333;BME280;3707;43.618;25.342;2022-11-15T06:09:31;100832.44;;;9.84;100.00
7333;BME280;3707;43.618;25.342;2022-11-15T06:11:57;100851.53;;;9.88;100.00
7333;BME280;3707;43.618;25.342;2022-11-15T06:14:24;100805.47;;;9.50;100.00
7333;BME280;3707;43.618;25.342;2022-11-15T06:16:51;100814.09;;;9.50;100.00
7333;BME280;3707;43.618;25.342;2022-11-15T06:19:19;100849.03;;;9.63;100.00
7333;BME280;3707;43.618;25.342;2022-11-15T06:21:46;100846.69;;;9.43;100.00
7333;BME280;3707;43.618;25.342;2022-11-15T06:24:13;100838.66;;;9.34;100.00
7333;BME280;3707;43.618;25.342;2022-11-15T06:26:39;100839.75;;;9.42;100.00
7333;BME280;3707;43.618;25.342;2022-11-15T06:29:06;100844.75;;;9.36;100.00
7333;BME280;3707;43.618;25.342;2022-11-15T06:31:33;100831.63;;;9.30;100.00
7333;BME280;3707;43.618;25.342;2022-11-15T06:34:01;100827.34;;;9.32;100.00
7333;BME280;3707;43.618;25.342;2022-11-15T06:36:29;100853.25;;;9.59;100.00
7333;BME280;3707;43.618;25.342;2022-11-15T06:38:56;100853.34;;;9.62;100.00
7333;BME280;3707;43.618;25.342;2022-11-15T06:41:23;100816.91;;;9.29;100.00
7333;BME280;3707;43.618;25.342;2022-11-15T06:43:50;100845.41;;;9.58;100.00
7333;BME280;3707;43.618;25.342;2022-11-15T06:46:16;100823.66;;;9.53;100.00
7333;BME280;3707;43.618;25.342;2022-11-15T06:48:43;100833.38;;;9.60;100.00
7333;BME280;3707;43.618;25.342;2022-11-15T07:05:52;100832.84;;;9.98;100.00
7333;BME280;3707;43.618;25.342;2022-11-15T07:08:19;100853.97;;;10.12;100.00
7333;BME280;3707;43.618;25.342;2022-11-15T07:10:46;100759.25;;;9.62;100.00
7333;BME280;3707;43.618;25.342;2022-11-15T07:13:13;100837.88;;;10.22;100.00
7333;BME280;3707;43.618;25.342;2022-11-15T07:15:40;100844.63;;;10.17;100.00
7333;BME280;3707;43.618;25.342;2022-11-15T07:18:06;100846.72;;;10.00;100.00
7333;BME280;3707;43.618;25.342;2022-11-15T07:20:33;100844.03;;;9.97;100.00
7333;BME280;3707;43.618;25.342;2022-11-15T07:23:02;100803.72;;;9.77;100.00
7333;BME280;3707;43.618;25.342;2022-11-15T07:25:29;100822.34;;;9.93;100.00
7333;BME280;3707;43.618;25.342;2022-11-15T07:27:56;100833.25;;;10.13;100.00
7333;BME280;3707;43.618;25.342;2022-11-15T07:30:24;100835.13;;;9.87;100.00
7333;BME280;3707;43.618;25.342;2022-11-15T07:32:53;100834.16;;;9.84;100.00
7333;BME280;3707;43.618;25.342;2022-11-15T07:35:20;100809.44;;;9.67;100.00
7333;BME280;3707;43.618;25.342;2022-11-15T07:37:53;100828.91;;;9.82;100.00
7333;BME280;3707;43.618;25.342;2022-11-15T07:40:22;100828.88;;;9.81;100.00
7333;BME280;3707;43.618;25.342;2022-11-15T07:42:49;100824.31;;;9.74;100.00
7333;BME280;3707;43.618;25.342;2022-11-15T07:45:23;100821.00;;;9.78;100.00
7333;BME280;3707;43.618;25.342;2022-11-15T07:47:52;100820.31;;;9.83;100.00
7333;BME280;3707;43.618;25.342;2022-11-15T07:50:19;100808.16;;;9.81;100.00
7333;BME280;3707;43.618;25.342;2022-11-15T07:52:46;100804.09;;;9.61;100.00
7333;BME280;3707;43.618;25.342;2022-11-15T07:55:13;100689.56;;;9.11;100.00
7333;BME280;3707;43.618;25.342;2022-11-15T07:57:41;100819.84;;;9.96;100.00
7333;BME280;3707;43.618;25.342;2022-11-15T08:00:09;100825.47;;;10.12;100.00
7333;BME280;3707;43.618;25.342;2022-11-15T08:02:36;100830.31;;;10.29;100.00
7333;BME280;3707;43.618;25.342;2022-11-15T08:05:04;100824.41;;;10.05;100.00
7333;BME280;3707;43.618;25.342;2022-11-15T08:07:31;100801.47;;;9.89;100.00
7333;BME280;3707;43.618;25.342;2022-11-15T08:09:58;100827.44;;;10.20;100.00
7333;BME280;3707;43.618;25.342;2022-11-15T08:12:26;100824.50;;;10.08;100.00
7333;BME280;3707;43.618;25.342;2022-11-15T08:14:55;100820.34;;;9.85;100.00
7333;BME280;3707;43.618;25.342;2022-11-15T08:17:22;100822.69;;;9.76;100.00
7333;BME280;3707;43.618;25.342;2022-11-15T08:19:49;100787.44;;;9.53;100.00
7333;BME280;3707;43.618;25.342;2022-11-15T08:22:16;100818.19;;;9.99;100.00
7333;BME280;3707;43.618;25.342;2022-11-15T08:24:43;100802.66;;;10.00;100.00
7333;BME280;3707;43.618;25.342;2022-11-15T08:27:10;100795.78;;;10.01;100.00
7333;BME280;3707;43.618;25.342;2022-11-15T08:32:11;100806.75;;;9.92;100.00
7333;BME280;3707;43.618;25.342;2022-11-15T08:34:38;100794.66;;;9.91;100.00
7333;BME280;3707;43.618;25.342;2022-11-15T08:37:05;100809.38;;;9.93;100.00
7333;BME280;3707;43.618;25.342;2022-11-15T08:39:32;100811.63;;;10.11;100.00
7333;BME280;3707;43.618;25.342;2022-11-15T08:41:59;100795.44;;;10.18;100.00
7333;BME280;3707;43.618;25.342;2022-11-15T08:44:26;100804.56;;;10.35;100.00
7333;BME280;3707;43.618;25.342;2022-11-15T08:46:52;100816.75;;;10.10;100.00
7333;BME280;3707;43.618;25.342;2022-11-15T08:49:21;100811.13;;;10.23;100.00
7333;BME280;3707;43.618;25.342;2022-11-15T08:51:48;100804.84;;;10.15;100.00
7333;BME280;3707;43.618;25.342;2022-11-15T08:54:14;100803.50;;;9.99;100.00
7333;BME280;3707;43.618;25.342;2022-11-15T08:56:41;100794.19;;;9.76;100.00
7333;BME280;3707;43.618;25.342;2022-11-15T08:59:08;100796.03;;;9.80;100.00
7333;BME280;3707;43.618;25.342;2022-11-15T09:01:35;100695.00;;;9.49;100.00
7333;BME280;3707;43.618;25.342;2022-11-15T09:04:02;100783.38;;;10.19;100.00
7333;BME280;3707;43.618;25.342;2022-11-15T09:06:30;100781.78;;;10.24;100.00
7333;BME280;3707;43.618;25.342;2022-11-15T09:08:57;100733.44;;;9.94;100.00
7333;BME280;3707;43.618;25.342;2022-11-15T09:11:24;100760.00;;;10.17;100.00
7333;BME280;3707;43.618;25.342;2022-11-15T09:13:52;100773.91;;;10.19;100.00
7333;BME280;3707;43.618;25.342;2022-11-15T09:16:18;100747.47;;;10.32;100.00
7333;BME280;3707;43.618;25.342;2022-11-15T09:18:45;100751.69;;;10.29;100.00
7333;BME280;3707;43.618;25.342;2022-11-15T09:21:12;100766.72;;;10.42;100.00
7333;BME280;3707;43.618;25.342;2022-11-15T09:23:40;100765.00;;;10.42;100.00
7333;BME280;3707;43.618;25.342;2022-11-15T09:26:07;100765.34;;;10.55;100.00
7333;BME280;3707;43.618;25.342;2022-11-15T09:28:35;100764.84;;;10.36;100.00
7333;BME280;3707;43.618;25.342;2022-11-15T09:31:04;100763.34;;;10.44;100.00
7333;BME280;3707;43.618;25.342;2022-11-15T09:33:31;100742.91;;;10.57;100.00
7333;BME280;3707;43.618;25.342;2022-11-15T09:36:00;100766.25;;;10.57;100.00
7333;BME280;3707;43.618;25.342;2022-11-15T09:38:27;100766.25;;;10.57;100.00
7333;BME280;3707;43.618;25.342;2022-11-15T09:41:16;100717.03;;;10.94;100.00
7333;BME280;3707;43.618;25.342;2022-11-15T09:43:50;100750.72;;;10.91;100.00
7333;BME280;3707;43.618;25.342;2022-11-15T09:46:26;100751.56;;;10.91;100.00
7333;BME280;3707;43.618;25.342;2022-11-15T09:48:55;100751.84;;;11.04;100.00
7333;BME280;3707;43.618;25.342;2022-11-15T09:51:27;100732.88;;;11.06;100.00
7333;BME280;3707;43.618;25.342;2022-11-15T09:54:09;100723.44;;;11.08;100.00
7333;BME280;3707;43.618;25.342;2022-11-15T09:56:41;100754.13;;;11.26;100.00
7333;BME280;3707;43.618;25.342;2022-11-15T10:02:08;100731.84;;;11.74;100.00
7333;BME280;3707;43.618;25.342;2022-11-15T10:04:42;100738.47;;;11.62;100.00
7333;BME280;3707;43.618;25.342;2022-11-15T10:07:16;100740.38;;;11.70;100.00
7333;BME280;3707;43.618;25.342;2022-11-15T10:09:48;100731.81;;;11.73;100.00
7333;BME280;3707;43.618;25.342;2022-11-15T10:12:19;100713.66;;;11.35;100.00
7333;BME280;3707;43.618;25.342;2022-11-15T10:14:46;100718.97;;;11.41;100.00
7333;BME280;3707;43.618;25.342;2022-11-15T10:17:35;100718.50;;;11.20;100.00
7333;BME280;3707;43.618;25.342;2022-11-15T10:20:12;100711.75;;;10.89;100.00
7333;BME280;3707;43.618;25.342;2022-11-15T10:22:46;100704.56;;;11.15;100.00
7333;BME280;3707;43.618;25.342;2022-11-15T10:25:19;100701.03;;;11.13;100.00
7333;BME280;3707;43.618;25.342;2022-11-15T10:27:53;100707.34;;;11.23;100.00
7333;BME280;3707;43.618;25.342;2022-11-15T10:30:20;100701.53;;;10.97;100.00
7333;BME280;3707;43.618;25.342;2022-11-15T10:32:48;100698.31;;;10.71;100.00
7333;BME280;3707;43.618;25.342;2022-11-15T10:35:21;100695.91;;;10.79;100.00
7333;BME280;3707;43.618;25.342;2022-11-15T10:37:48;100695.09;;;10.80;100.00
7333;BME280;3707;43.618;25.342;2022-11-15T10:40:18;100688.63;;;11.00;100.00
7333;BME280;3707;43.618;25.342;2022-11-15T10:42:47;100653.84;;;10.92;100.00
7333;BME280;3707;43.618;25.342;2022-11-15T10:45:26;100667.88;;;11.00;100.00
7333;BME280;3707;43.618;25.342;2022-11-15T10:48:21;100680.09;;;11.04;100.00
7333;BME280;3707;43.618;25.342;2022-11-15T10:50:50;100685.56;;;11.16;100.00
7333;BME280;3707;43.618;25.342;2022-11-15T10:53:21;100671.66;;;11.14;100.00
7333;BME280;3707;43.618;25.342;2022-11-15T10:55:50;100675.31;;;11.24;100.00
7333;BME280;3707;43.618;25.342;2022-11-15T10:58:31;100681.44;;;11.27;100.00
7333;BME280;3707;43.618;25.342;2022-11-15T11:01:12;100678.94;;;11.30;100.00
7333;BME280;3707;43.618;25.342;2022-11-15T11:03:40;100638.16;;;10.86;100.00
7333;BME280;3707;43.618;25.342;2022-11-15T11:06:10;100663.63;;;11.04;100.00
7333;BME280;3707;43.618;25.342;2022-11-15T11:08:38;100599.47;;;10.58;100.00
7333;BME280;3707;43.618;25.342;2022-11-15T11:11:07;100565.88;;;10.64;100.00
7333;BME280;3707;43.618;25.342;2022-11-15T11:13:37;100646.88;;;11.28;100.00
7333;BME280;3707;43.618;25.342;2022-11-15T11:16:25;100626.59;;;11.11;100.00
7333;BME280;3707;43.618;25.342;2022-11-15T11:19:17;100641.22;;;11.48;100.00
7333;BME280;3707;43.618;25.342;2022-11-15T11:21:50;100631.78;;;11.53;100.00
7333;BME280;3707;43.618;25.342;2022-11-15T11:24:22;100623.28;;;11.16;100.00
7333;BME280;3707;43.618;25.342;2022-11-15T11:27:04;100627.22;;;11.39;100.00
7333;BME280;3707;43.618;25.342;2022-11-15T11:29:47;100619.47;;;11.41;100.00
7333;BME280;3707;43.618;25.342;2022-11-15T11:32:30;100614.28;;;11.41;100.00
7333;BME280;3707;43.618;25.342;2022-11-15T11:35:05;100597.44;;;11.24;100.00
7333;BME280;3707;43.618;25.342;2022-11-15T11:37:39;100580.88;;;11.16;100.00
7333;BME280;3707;43.618;25.342;2022-11-15T11:40:19;100606.47;;;11.41;100.00
7333;BME280;3707;43.618;25.342;2022-11-15T11:42:53;100514.00;;;11.04;100.00
7333;BME280;3707;43.618;25.342;2022-11-15T11:45:42;100605.22;;;11.66;100.00
7333;BME280;3707;43.618;25.342;2022-11-15T11:48:13;100607.13;;;11.73;100.00
7333;BME280;3707;43.618;25.342;2022-11-15T11:50:42;100584.25;;;11.57;100.00
7333;BME280;3707;43.618;25.342;2022-11-15T11:53:14;100601.38;;;11.90;100.00
7333;BME280;3707;43.618;25.342;2022-11-15T11:55:44;100593.03;;;11.62;100.00
7333;BME280;3707;43.618;25.342;2022-11-15T11:58:16;100546.69;;;11.83;100.00
7333;BME280;3707;43.618;25.342;2022-11-15T12:00:47;100580.19;;;12.17;100.00
7333;BME280;3707;43.618;25.342;2022-11-15T12:03:22;100586.03;;;12.04;100.00
7333;BME280;3707;43.618;25.342;2022-11-15T12:05:54;100568.25;;;11.79;100.00
7333;BME280;3707;43.618;25.342;2022-11-15T12:08:30;100572.19;;;11.59;100.00
7333;BME280;3707;43.618;25.342;2022-11-15T12:11:07;100574.50;;;11.43;100.00
7333;BME280;3707;43.618;25.342;2022-11-15T12:13:36;100572.63;;;11.38;100.00
7333;BME280;3707;43.618;25.342;2022-11-15T12:16:09;100575.38;;;11.45;100.00
7333;BME280;3707;43.618;25.342;2022-11-15T12:18:38;100565.25;;;11.58;100.00
7333;BME280;3707;43.618;25.342;2022-11-15T12:21:07;100569.59;;;11.60;100.00
7333;BME280;3707;43.618;25.342;2022-11-15T12:23:43;100569.44;;;11.51;100.00
7333;BME280;3707;43.618;25.342;2022-11-15T12:26:18;100562.81;;;11.67;100.00
7333;BME280;3707;43.618;25.342;2022-11-15T12:28:49;100559.00;;;11.48;100.00
7333;BME280;3707;43.618;25.342;2022-11-15T12:31:23;100548.69;;;11.51;100.00
7333;BME280;3707;43.618;25.342;2022-11-15T12:33:55;100509.34;;;11.31;100.00
7333;BME280;3707;43.618;25.342;2022-11-15T12:36:35;100536.63;;;11.56;100.00
7333;BME280;3707;43.618;25.342;2022-11-15T12:39:04;100541.19;;;11.68;100.00
7333;BME280;3707;43.618;25.342;2022-11-15T12:41:33;100522.06;;;11.63;100.00
7333;BME280;3707;43.618;25.342;2022-11-15T12:44:01;100535.94;;;11.65;100.00
7333;BME280;3707;43.618;25.342;2022-11-15T12:47:00;100549.75;;;11.64;100.00
7333;BME280;3707;43.618;25.342;2022-11-15T12:49:44;100535.97;;;11.68;100.00
7333;BME280;3707;43.618;25.342;2022-11-15T12:52:15;100501.41;;;11.22;100.00
7333;BME280;3707;43.618;25.342;2022-11-15T12:55:29;100534.97;;;11.58;100.00
7333;BME280;3707;43.618;25.342;2022-11-15T12:58:24;100534.31;;;11.70;100.00
7333;BME280;3707;43.618;25.342;2022-11-15T13:00:52;100531.34;;;11.50;100.00
7333;BME280;3707;43.618;25.342;2022-11-15T13:03:23;100529.53;;;11.44;100.00
7333;BME280;3707;43.618;25.342;2022-11-15T13:06:00;100530.66;;;11.59;100.00
7333;BME280;3707;43.618;25.342;2022-11-15T13:08:49;100492.34;;;11.49;100.00
7333;BME280;3707;43.618;25.342;2022-11-15T13:11:48;100531.81;;;11.74;100.00
7333;BME280;3707;43.618;25.342;2022-11-15T13:14:44;100523.91;;;11.70;100.00
7333;BME280;3707;43.618;25.342;2022-11-15T13:17:33;100525.69;;;11.71;100.00
7333;BME280;3707;43.618;25.342;2022-11-15T13:20:21;100523.91;;;11.70;100.00
7333;BME280;3707;43.618;25.342;2022-11-15T13:22:50;100511.47;;;11.52;100.00
7333;BME280;3707;43.618;25.342;2022-11-15T13:25:19;100496.41;;;11.34;100.00
7333;BME280;3707;43.618;25.342;2022-11-15T13:27:49;100495.28;;;11.20;100.00
7333;BME280;3707;43.618;25.342;2022-11-15T13:30:20;100472.44;;;11.01;100.00
7333;BME280;3707;43.618;25.342;2022-11-15T13:32:48;100458.19;;;10.81;100.00
7333;BME280;3707;43.618;25.342;2022-11-15T13:35:22;100496.56;;;10.97;100.00